sensor_id;sensor_type;location;lat;lon;timestamp;P1;durP1;ratioP1;P2;durP2;ratioP2
8704;SDS011;4389;41.932;25.904;2022-12-07T00:00:52;40.70;;;18.03;;
8704;SDS011;4389;41.932;25.904;2022-12-07T00:03:19;53.40;;;23.93;;
8704;SDS011;4389;41.932;25.904;2022-12-07T00:05:46;39.97;;;19.07;;
8704;SDS011;4389;41.932;25.904;2022-12-07T00:08:14;47.57;;;23.20;;
8704;SDS011;4389;41.932;25.904;2022-12-07T00:10:41;47.20;;;23.97;;
8704;SDS011;4389;41.932;25.904;2022-12-07T00:13:08;58.80;;;29.50;;
8704;SDS011;4389;41.932;25.904;2022-12-07T00:15:35;42.50;;;20.57;;
8704;SDS011;4389;41.932;25.904;2022-12-07T00:18:02;42.60;;;20.40;;
8704;SDS011;4389;41.932;25.904;2022-12-07T00:20:29;46.23;;;24.13;;
8704;SDS011;4389;41.932;25.904;2022-12-07T00:22:56;45.37;;;21.90;;
8704;SDS011;4389;41.932;25.904;2022-12-07T00:25:24;39.77;;;20.23;;
8704;SDS011;4389;41.932;25.904;2022-12-07T00:27:52;36.03;;;19.03;;
8704;SDS011;4389;41.932;25.904;2022-12-07T00:30:20;37.57;;;19.73;;
8704;SDS011;4389;41.932;25.904;2022-12-07T00:32:48;42.10;;;21.93;;
8704;SDS011;4389;41.932;25.904;2022-12-07T00:35:15;59.33;;;24.20;;
8704;SDS011;4389;41.932;25.904;2022-12-07T00:37:42;45.17;;;22.87;;
8704;SDS011;4389;41.932;25.904;2022-12-07T00:40:09;44.27;;;23.97;;
8704;SDS011;4389;41.932;25.904;2022-12-07T00:42:45;51.53;;;25.93;;
8704;SDS011;4389;41.932;25.904;2022-12-07T00:45:12;41.37;;;22.27;;
8704;SDS011;4389;41.932;25.904;2022-12-07T00:47:39;40.63;;;19.87;;
8704;SDS011;4389;41.932;25.904;2022-12-07T00:50:06;45.87;;;21.43;;
8704;SDS011;4389;41.932;25.904;2022-12-07T00:52:33;41.87;;;20.70;;
8704;SDS011;4389;41.932;25.904;2022-12-07T00:55:00;59.93;;;22.47;;
8704;SDS011;4389;41.932;25.904;2022-12-07T00:57:27;45.87;;;24.07;;
8704;SDS011;4389;41.932;25.904;2022-12-07T00:59:55;68.80;;;25.03;;
8704;SDS011;4389;41.932;25.904;2022-12-07T01:02:22;50.30;;;28.03;;
8704;SDS011;4389;41.932;25.904;2022-12-07T01:04:49;49.43;;;26.60;;
8704;SDS011;4389;41.932;25.904;2022-12-07T01:07:16;47.40;;;25.60;;
8704;SDS011;4389;41.932;25.904;2022-12-07T01:09:43;50.07;;;23.50;;
8704;SDS011;4389;41.932;25.904;2022-12-07T01:12:10;47.03;;;24.03;;
8704;SDS011;4389;41.932;25.904;2022-12-07T01:14:37;48.77;;;24.47;;
8704;SDS011;4389;41.932;25.904;2022-12-07T01:17:05;46.87;;;23.10;;
8704;SDS011;4389;41.932;25.904;2022-12-07T01:19:32;49.63;;;23.67;;
8704;SDS011;4389;41.932;25.904;2022-12-07T01:21:59;39.77;;;21.00;;
8704;SDS011;4389;41.932;25.904;2022-12-07T01:24:25;36.73;;;20.20;;
8704;SDS011;4389;41.932;25.904;2022-12-07T01:26:52;35.37;;;19.03;;
8704;SDS011;4389;41.932;25.904;2022-12-07T01:29:19;39.77;;;20.53;;
8704;SDS011;4389;41.932;25.904;2022-12-07T01:31:48;42.50;;;19.47;;
8704;SDS011;4389;41.932;25.904;2022-12-07T01:34:17;39.57;;;19.57;;
8704;SDS011;4389;41.932;25.904;2022-12-07T01:36:43;39.47;;;20.23;;
8704;SDS011;4389;41.932;25.904;2022-12-07T01:39:10;43.87;;;19.23;;
8704;SDS011;4389;41.932;25.904;2022-12-07T01:41:38;43.37;;;22.00;;
8704;SDS011;4389;41.932;25.904;2022-12-07T01:44:13;46.43;;;22.23;;
8704;SDS011;4389;41.932;25.904;2022-12-07T01:46:43;43.80;;;20.77;;
8704;SDS011;4389;41.932;25.904;2022-12-07T01:49:12;37.60;;;18.10;;
8704;SDS011;4389;41.932;25.904;2022-12-07T01:51:46;35.53;;;20.10;;
8704;SDS011;4389;41.932;25.904;2022-12-07T01:54:15;40.33;;;19.93;;
8704;SDS011;4389;41.932;25.904;2022-12-07T01:56:44;38.63;;;20.07;;
8704;SDS011;4389;41.932;25.904;2022-12-07T01:59:18;40.63;;;20.63;;
8704;SDS011;4389;41.932;25.904;2022-12-07T02:01:48;42.10;;;19.20;;
8704;SDS011;4389;41.932;25.904;2022-12-07T02:04:14;37.43;;;20.17;;
8704;SDS011;4389;41.932;25.904;2022-12-07T02:06:44;39.73;;;20.17;;
8704;SDS011;4389;41.932;25.904;2022-12-07T02:09:12;40.60;;;19.53;;
8704;SDS011;4389;41.932;25.904;2022-12-07T02:11:39;40.10;;;21.10;;
8704;SDS011;4389;41.932;25.904;2022-12-07T02:14:07;38.20;;;18.87;;
8704;SDS011;4389;41.932;25.904;2022-12-07T02:16:37;37.87;;;18.77;;
8704;SDS011;4389;41.932;25.904;2022-12-07T02:19:25;34.83;;;18.87;;
8704;SDS011;4389;41.932;25.904;2022-12-07T02:22:16;43.03;;;19.53;;
8704;SDS011;4389;41.932;25.904;2022-12-07T02:24:56;39.90;;;18.77;;
8704;SDS011;4389;41.932;25.904;2022-12-07T02:27:37;39.60;;;18.80;;
8704;SDS011;4389;41.932;25.904;2022-12-07T02:30:12;32.33;;;17.30;;
8704;SDS011;4389;41.932;25.904;2022-12-07T02:32:42;34.70;;;18.57;;
8704;SDS011;4389;41.932;25.904;2022-12-07T02:35:16;42.17;;;19.60;;
8704;SDS011;4389;41.932;25.904;2022-12-07T02:37:52;40.90;;;19.23;;
8704;SDS011;4389;41.932;25.904;2022-12-07T02:40:25;39.90;;;18.87;;
8704;SDS011;4389;41.932;25.904;2022-12-07T02:42:58;37.20;;;18.37;;
8704;SDS011;4389;41.932;25.904;2022-12-07T02:45:31;33.30;;;19.43;;
8704;SDS011;4389;41.932;25.904;2022-12-07T02:48:02;38.13;;;18.87;;
8704;SDS011;4389;41.932;25.904;2022-12-07T02:50:31;36.13;;;20.07;;
8704;SDS011;4389;41.932;25.904;2022-12-07T02:52:57;40.03;;;21.47;;
8704;SDS011;4389;41.932;25.904;2022-12-07T02:55:25;37.77;;;19.70;;
8704;SDS011;4389;41.932;25.904;2022-12-07T02:58:05;35.37;;;20.83;;
8704;SDS011;4389;41.932;25.904;2022-12-07T03:00:44;48.90;;;24.03;;
8704;SDS011;4389;41.932;25.904;2022-12-07T03:03:18;39.73;;;22.97;;
8704;SDS011;4389;41.932;25.904;2022-12-07T03:05:52;45.93;;;26.70;;
8704;SDS011;4389;41.932;25.904;2022-12-07T03:08:28;54.47;;;29.37;;
8704;SDS011;4389;41.932;25.904;2022-12-07T03:11:05;40.83;;;21.23;;
8704;SDS011;4389;41.932;25.904;2022-12-07T03:13:37;40.50;;;22.27;;
8704;SDS011;4389;41.932;25.904;2022-12-07T03:16:11;34.70;;;19.43;;
8704;SDS011;4389;41.932;25.904;2022-12-07T03:18:43;38.63;;;19.47;;
8704;SDS011;4389;41.932;25.904;2022-12-07T03:21:13;38.90;;;20.70;;
8704;SDS011;4389;41.932;25.904;2022-12-07T03:23:44;40.03;;;19.63;;
8704;SDS011;4389;41.932;25.904;2022-12-07T03:26:17;46.60;;;24.13;;
8704;SDS011;4389;41.932;25.904;2022-12-07T03:28:48;48.27;;;23.30;;
8704;SDS011;4389;41.932;25.904;2022-12-07T03:31:22;44.77;;;22.77;;
8704;SDS011;4389;41.932;25.904;2022-12-07T03:33:53;53.03;;;25.47;;
8704;SDS011;4389;41.932;25.904;2022-12-07T03:36:25;50.37;;;25.70;;
8704;SDS011;4389;41.932;25.904;2022-12-07T03:38:57;53.13;;;27.57;;
8704;SDS011;4389;41.932;25.904;2022-12-07T03:41:29;85.20;;;37.87;;
8704;SDS011;4389;41.932;25.904;2022-12-07T03:44:00;39.40;;;22.67;;
8704;SDS011;4389;41.932;25.904;2022-12-07T03:46:29;42.43;;;22.60;;
8704;SDS011;4389;41.932;25.904;2022-12-07T03:49:04;43.40;;;21.60;;
8704;SDS011;4389;41.932;25.904;2022-12-07T03:51:37;37.00;;;20.03;;
8704;SDS011;4389;41.932;25.904;2022-12-07T03:54:10;41.47;;;19.63;;
8704;SDS011;4389;41.932;25.904;2022-12-07T03:56:43;41.43;;;19.93;;
8704;SDS011;4389;41.932;25.904;2022-12-07T03:59:11;43.87;;;21.23;;
8704;SDS011;4389;41.932;25.904;2022-12-07T04:01:42;41.10;;;22.17;;
8704;SDS011;4389;41.932;25.904;2022-12-07T04:04:10;42.33;;;20.67;;
8704;SDS011;4389;41.932;25.904;2022-12-07T04:06:37;46.63;;;22.67;;
8704;SDS011;4389;41.932;25.904;2022-12-07T04:09:04;51.90;;;22.97;;
8704;SDS011;4389;41.932;25.904;2022-12-07T04:11:30;43.53;;;22.30;;
8704;SDS011;4389;41.932;25.904;2022-12-07T04:13:57;49.27;;;22.07;;
8704;SDS011;4389;41.932;25.904;2022-12-07T04:16:43;40.93;;;20.63;;
8704;SDS011;4389;41.932;25.904;2022-12-07T04:19:10;43.30;;;21.80;;
8704;SDS011;4389;41.932;25.904;2022-12-07T04:21:38;53.33;;;22.83;;
8704;SDS011;4389;41.932;25.904;2022-12-07T04:24:05;37.87;;;20.17;;
8704;SDS011;4389;41.932;25.904;2022-12-07T04:26:32;39.07;;;21.13;;
8704;SDS011;4389;41.932;25.904;2022-12-07T04:28:59;43.00;;;22.43;;
8704;SDS011;4389;41.932;25.904;2022-12-07T04:31:26;47.30;;;23.47;;
8704;SDS011;4389;41.932;25.904;2022-12-07T04:33:54;45.13;;;22.97;;
8704;SDS011;4389;41.932;25.904;2022-12-07T04:36:21;39.17;;;22.13;;
8704;SDS011;4389;41.932;25.904;2022-12-07T04:38:48;47.50;;;25.47;;
8704;SDS011;4389;41.932;25.904;2022-12-07T04:41:15;41.83;;;22.83;;
8704;SDS011;4389;41.932;25.904;2022-12-07T04:43:42;50.23;;;25.03;;
8704;SDS011;4389;41.932;25.904;2022-12-07T04:46:09;60.97;;;36.47;;
8704;SDS011;4389;41.932;25.904;2022-12-07T04:48:35;86.93;;;54.60;;
8704;SDS011;4389;41.932;25.904;2022-12-07T04:51:04;70.43;;;43.93;;
8704;SDS011;4389;41.932;25.904;2022-12-07T04:53:31;85.40;;;41.37;;
8704;SDS011;4389;41.932;25.904;2022-12-07T04:55:58;54.10;;;28.40;;
8704;SDS011;4389;41.932;25.904;2022-12-07T04:58:26;51.40;;;27.00;;
8704;SDS011;4389;41.932;25.904;2022-12-07T05:00:53;54.13;;;28.37;;
8704;SDS011;4389;41.932;25.904;2022-12-07T05:03:21;48.00;;;25.10;;
8704;SDS011;4389;41.932;25.904;2022-12-07T05:05:47;41.40;;;24.50;;
8704;SDS011;4389;41.932;25.904;2022-12-07T05:08:16;43.37;;;22.87;;
8704;SDS011;4389;41.932;25.904;2022-12-07T05:10:43;42.97;;;25.23;;
8704;SDS011;4389;41.932;25.904;2022-12-07T05:13:10;44.57;;;25.63;;
8704;SDS011;4389;41.932;25.904;2022-12-07T05:15:36;57.20;;;28.00;;
8704;SDS011;4389;41.932;25.904;2022-12-07T05:18:04;53.20;;;27.93;;
8704;SDS011;4389;41.932;25.904;2022-12-07T05:20:31;55.97;;;26.10;;
8704;SDS011;4389;41.932;25.904;2022-12-07T05:22:57;44.30;;;22.60;;
8704;SDS011;4389;41.932;25.904;2022-12-07T05:25:26;53.67;;;23.83;;
8704;SDS011;4389;41.932;25.904;2022-12-07T05:27:54;45.47;;;23.40;;
8704;SDS011;4389;41.932;25.904;2022-12-07T05:30:21;42.50;;;22.07;;
8704;SDS011;4389;41.932;25.904;2022-12-07T05:32:48;39.17;;;23.47;;
8704;SDS011;4389;41.932;25.904;2022-12-07T05:35:15;39.13;;;22.23;;
8704;SDS011;4389;41.932;25.904;2022-12-07T05:37:43;37.50;;;21.50;;
8704;SDS011;4389;41.932;25.904;2022-12-07T05:40:10;47.77;;;23.40;;
8704;SDS011;4389;41.932;25.904;2022-12-07T05:42:39;45.00;;;23.50;;
8704;SDS011;4389;41.932;25.904;2022-12-07T05:45:07;50.33;;;26.10;;
8704;SDS011;4389;41.932;25.904;2022-12-07T05:47:35;57.90;;;25.80;;
8704;SDS011;4389;41.932;25.904;2022-12-07T05:50:02;43.53;;;24.60;;
8704;SDS011;4389;41.932;25.904;2022-12-07T05:52:30;53.67;;;25.73;;
8704;SDS011;4389;41.932;25.904;2022-12-07T05:54:57;52.30;;;27.90;;
8704;SDS011;4389;41.932;25.904;2022-12-07T05:57:24;51.53;;;27.23;;
8704;SDS011;4389;41.932;25.904;2022-12-07T05:59:52;61.10;;;33.27;;
8704;SDS011;4389;41.932;25.904;2022-12-07T06:02:18;58.43;;;35.27;;
8704;SDS011;4389;41.932;25.904;2022-12-07T06:04:45;72.73;;;49.67;;
8704;SDS011;4389;41.932;25.904;2022-12-07T06:07:13;76.63;;;47.00;;
8704;SDS011;4389;41.932;25.904;2022-12-07T06:09:42;80.53;;;48.03;;
8704;SDS011;4389;41.932;25.904;2022-12-07T06:12:09;134.80;;;92.03;;
8704;SDS011;4389;41.932;25.904;2022-12-07T06:14:55;124.10;;;85.30;;
8704;SDS011;4389;41.932;25.904;2022-12-07T06:17:23;101.47;;;72.03;;
8704;SDS011;4389;41.932;25.904;2022-12-07T06:19:50;109.70;;;65.80;;
8704;SDS011;4389;41.932;25.904;2022-12-07T06:22:17;107.87;;;71.50;;
8704;SDS011;4389;41.932;25.904;2022-12-07T06:24:44;101.37;;;68.60;;
8704;SDS011;4389;41.932;25.904;2022-12-07T06:27:11;100.40;;;63.70;;
8704;SDS011;4389;41.932;25.904;2022-12-07T06:29:38;90.40;;;60.27;;
8704;SDS011;4389;41.932;25.904;2022-12-07T06:32:07;94.13;;;64.23;;
8704;SDS011;4389;41.932;25.904;2022-12-07T06:34:34;99.33;;;67.00;;
8704;SDS011;4389;41.932;25.904;2022-12-07T06:37:01;105.80;;;61.23;;
8704;SDS011;4389;41.932;25.904;2022-12-07T06:39:28;71.23;;;47.63;;
8704;SDS011;4389;41.932;25.904;2022-12-07T06:41:56;80.57;;;54.17;;
8704;SDS011;4389;41.932;25.904;2022-12-07T06:44:23;77.77;;;49.33;;
8704;SDS011;4389;41.932;25.904;2022-12-07T06:46:52;86.90;;;49.40;;
8704;SDS011;4389;41.932;25.904;2022-12-07T06:49:20;78.47;;;51.20;;
8704;SDS011;4389;41.932;25.904;2022-12-07T06:51:47;90.13;;;55.93;;
8704;SDS011;4389;41.932;25.904;2022-12-07T06:54:14;115.00;;;60.40;;
8704;SDS011;4389;41.932;25.904;2022-12-07T06:56:43;113.15;;;68.18;;
8704;SDS011;4389;41.932;25.904;2022-12-07T06:59:10;102.70;;;61.57;;
8704;SDS011;4389;41.932;25.904;2022-12-07T07:01:37;87.17;;;48.03;;
8704;SDS011;4389;41.932;25.904;2022-12-07T07:04:04;66.83;;;40.20;;
8704;SDS011;4389;41.932;25.904;2022-12-07T07:06:33;72.37;;;39.97;;
8704;SDS011;4389;41.932;25.904;2022-12-07T07:09:00;71.03;;;34.40;;
8704;SDS011;4389;41.932;25.904;2022-12-07T07:11:26;40.77;;;28.93;;
8704;SDS011;4389;41.932;25.904;2022-12-07T07:13:53;73.63;;;45.70;;
8704;SDS011;4389;41.932;25.904;2022-12-07T07:16:22;83.77;;;57.20;;
8704;SDS011;4389;41.932;25.904;2022-12-07T07:18:49;61.93;;;43.03;;
8704;SDS011;4389;41.932;25.904;2022-12-07T07:21:16;52.07;;;34.83;;
8704;SDS011;4389;41.932;25.904;2022-12-07T07:23:44;53.37;;;28.73;;
8704;SDS011;4389;41.932;25.904;2022-12-07T07:26:11;52.37;;;27.43;;
8704;SDS011;4389;41.932;25.904;2022-12-07T07:28:38;47.60;;;28.73;;
8704;SDS011;4389;41.932;25.904;2022-12-07T07:31:05;45.77;;;24.77;;
8704;SDS011;4389;41.932;25.904;2022-12-07T07:33:32;53.60;;;25.93;;
8704;SDS011;4389;41.932;25.904;2022-12-07T07:35:59;41.93;;;22.27;;
8704;SDS011;4389;41.932;25.904;2022-12-07T07:38:25;52.03;;;25.43;;
8704;SDS011;4389;41.932;25.904;2022-12-07T07:40:53;57.33;;;40.27;;
8704;SDS011;4389;41.932;25.904;2022-12-07T07:43:20;71.10;;;41.03;;
8704;SDS011;4389;41.932;25.904;2022-12-07T07:45:47;68.37;;;36.40;;
8704;SDS011;4389;41.932;25.904;2022-12-07T07:48:14;53.13;;;30.27;;
8704;SDS011;4389;41.932;25.904;2022-12-07T07:50:41;50.90;;;23.73;;
8704;SDS011;4389;41.932;25.904;2022-12-07T07:53:08;55.07;;;29.03;;
8704;SDS011;4389;41.932;25.904;2022-12-07T07:55:35;51.50;;;25.60;;
8704;SDS011;4389;41.932;25.904;2022-12-07T07:58:03;67.43;;;41.97;;
8704;SDS011;4389;41.932;25.904;2022-12-07T08:00:30;73.17;;;44.50;;
8704;SDS011;4389;41.932;25.904;2022-12-07T08:02:57;75.43;;;45.37;;
8704;SDS011;4389;41.932;25.904;2022-12-07T08:05:24;53.10;;;30.03;;
8704;SDS011;4389;41.932;25.904;2022-12-07T08:07:51;51.97;;;26.30;;
8704;SDS011;4389;41.932;25.904;2022-12-07T08:10:18;68.53;;;35.43;;
8704;SDS011;4389;41.932;25.904;2022-12-07T08:12:45;47.10;;;20.37;;
8704;SDS011;4389;41.932;25.904;2022-12-07T08:15:30;56.03;;;28.53;;
8704;SDS011;4389;41.932;25.904;2022-12-07T08:17:57;50.27;;;29.10;;
8704;SDS011;4389;41.932;25.904;2022-12-07T08:20:24;43.33;;;22.10;;
8704;SDS011;4389;41.932;25.904;2022-12-07T08:22:51;53.47;;;22.57;;
8704;SDS011;4389;41.932;25.904;2022-12-07T08:25:18;42.57;;;22.57;;
8704;SDS011;4389;41.932;25.904;2022-12-07T08:27:45;51.43;;;23.47;;
8704;SDS011;4389;41.932;25.904;2022-12-07T08:30:12;50.70;;;22.93;;
8704;SDS011;4389;41.932;25.904;2022-12-07T08:32:41;48.73;;;23.73;;
8704;SDS011;4389;41.932;25.904;2022-12-07T08:35:08;45.00;;;21.37;;
8704;SDS011;4389;41.932;25.904;2022-12-07T08:37:35;52.50;;;23.63;;
8704;SDS011;4389;41.932;25.904;2022-12-07T08:40:03;52.37;;;22.37;;
8704;SDS011;4389;41.932;25.904;2022-12-07T08:42:32;54.50;;;22.63;;
8704;SDS011;4389;41.932;25.904;2022-12-07T08:45:05;48.13;;;21.03;;
8704;SDS011;4389;41.932;25.904;2022-12-07T08:47:34;49.17;;;21.63;;
8704;SDS011;4389;41.932;25.904;2022-12-07T08:50:04;60.17;;;23.70;;
8704;SDS011;4389;41.932;25.904;2022-12-07T08:52:33;51.63;;;25.17;;
8704;SDS011;4389;41.932;25.904;2022-12-07T08:55:01;236.67;;;36.07;;
8704;SDS011;4389;41.932;25.904;2022-12-07T08:57:30;51.57;;;28.50;;
8704;SDS011;4389;41.932;25.904;2022-12-07T08:59:59;63.17;;;32.17;;
8704;SDS011;4389;41.932;25.904;2022-12-07T09:02:26;47.87;;;27.50;;
8704;SDS011;4389;41.932;25.904;2022-12-07T09:04:53;45.80;;;26.13;;
8704;SDS011;4389;41.932;25.904;2022-12-07T09:07:21;47.50;;;25.93;;
8704;SDS011;4389;41.932;25.904;2022-12-07T09:09:49;37.17;;;26.33;;
8704;SDS011;4389;41.932;25.904;2022-12-07T09:12:16;41.53;;;27.10;;
8704;SDS011;4389;41.932;25.904;2022-12-07T09:14:43;88.87;;;34.83;;
8704;SDS011;4389;41.932;25.904;2022-12-07T09:17:10;56.67;;;37.67;;
8704;SDS011;4389;41.932;25.904;2022-12-07T09:19:39;52.37;;;34.97;;
8704;SDS011;4389;41.932;25.904;2022-12-07T09:22:07;43.60;;;29.03;;
8704;SDS011;4389;41.932;25.904;2022-12-07T09:24:36;43.00;;;31.93;;
8704;SDS011;4389;41.932;25.904;2022-12-07T09:27:03;47.63;;;29.00;;
8704;SDS011;4389;41.932;25.904;2022-12-07T09:29:29;43.47;;;28.33;;
8704;SDS011;4389;41.932;25.904;2022-12-07T09:31:56;45.30;;;26.23;;
8704;SDS011;4389;41.932;25.904;2022-12-07T09:34:23;40.00;;;29.70;;
8704;SDS011;4389;41.932;25.904;2022-12-07T09:36:51;30.70;;;20.63;;
8704;SDS011;4389;41.932;25.904;2022-12-07T09:39:18;42.27;;;26.67;;
8704;SDS011;4389;41.932;25.904;2022-12-07T09:41:47;40.17;;;25.13;;
8704;SDS011;4389;41.932;25.904;2022-12-07T09:44:14;40.07;;;24.93;;
8704;SDS011;4389;41.932;25.904;2022-12-07T09:46:48;40.57;;;24.53;;
8704;SDS011;4389;41.932;25.904;2022-12-07T09:49:16;44.70;;;24.77;;
8704;SDS011;4389;41.932;25.904;2022-12-07T09:51:45;43.33;;;28.07;;
8704;SDS011;4389;41.932;25.904;2022-12-07T09:54:13;39.27;;;25.73;;
8704;SDS011;4389;41.932;25.904;2022-12-07T09:56:42;39.60;;;27.63;;
8704;SDS011;4389;41.932;25.904;2022-12-07T09:59:13;57.97;;;39.23;;
8704;SDS011;4389;41.932;25.904;2022-12-07T10:01:46;41.33;;;28.20;;
8704;SDS011;4389;41.932;25.904;2022-12-07T10:04:15;41.37;;;25.83;;
8704;SDS011;4389;41.932;25.904;2022-12-07T10:06:44;52.23;;;28.00;;
8704;SDS011;4389;41.932;25.904;2022-12-07T10:09:14;40.90;;;23.70;;
8704;SDS011;4389;41.932;25.904;2022-12-07T10:11:59;41.93;;;22.57;;
8704;SDS011;4389;41.932;25.904;2022-12-07T10:14:29;39.20;;;23.57;;
8704;SDS011;4389;41.932;25.904;2022-12-07T10:16:57;41.73;;;26.87;;
8704;SDS011;4389;41.932;25.904;2022-12-07T10:19:25;33.63;;;22.60;;
8704;SDS011;4389;41.932;25.904;2022-12-07T10:22:04;44.73;;;23.80;;
8704;SDS011;4389;41.932;25.904;2022-12-07T10:24:36;45.27;;;24.23;;
8704;SDS011;4389;41.932;25.904;2022-12-07T10:27:04;39.47;;;22.23;;
8704;SDS011;4389;41.932;25.904;2022-12-07T10:29:46;34.97;;;22.03;;
8704;SDS011;4389;41.932;25.904;2022-12-07T10:32:27;34.50;;;21.33;;
8704;SDS011;4389;41.932;25.904;2022-12-07T10:35:15;29.23;;;20.00;;
8704;SDS011;4389;41.932;25.904;2022-12-07T10:37:47;35.47;;;22.67;;
8704;SDS011;4389;41.932;25.904;2022-12-07T10:40:28;29.90;;;22.83;;
8704;SDS011;4389;41.932;25.904;2022-12-07T10:43:15;38.03;;;24.57;;
8704;SDS011;4389;41.932;25.904;2022-12-07T10:45:57;40.40;;;26.03;;
8704;SDS011;4389;41.932;25.904;2022-12-07T10:48:50;35.57;;;22.10;;
8704;SDS011;4389;41.932;25.904;2022-12-07T10:51:27;46.17;;;24.20;;
8704;SDS011;4389;41.932;25.904;2022-12-07T10:54:04;40.50;;;21.07;;
8704;SDS011;4389;41.932;25.904;2022-12-07T10:56:46;56.10;;;28.03;;
8704;SDS011;4389;41.932;25.904;2022-12-07T11:02:34;40.33;;;26.83;;
8704;SDS011;4389;41.932;25.904;2022-12-07T11:05:14;47.00;;;30.80;;
8704;SDS011;4389;41.932;25.904;2022-12-07T11:07:50;43.13;;;28.53;;
8704;SDS011;4389;41.932;25.904;2022-12-07T11:10:26;45.77;;;28.80;;
8704;SDS011;4389;41.932;25.904;2022-12-07T11:13:08;70.30;;;31.63;;
8704;SDS011;4389;41.932;25.904;2022-12-07T11:15:57;39.63;;;26.20;;
8704;SDS011;4389;41.932;25.904;2022-12-07T11:18:46;37.87;;;23.43;;
8704;SDS011;4389;41.932;25.904;2022-12-07T11:21:21;44.97;;;22.40;;
8704;SDS011;4389;41.932;25.904;2022-12-07T11:23:55;33.60;;;21.00;;
8704;SDS011;4389;41.932;25.904;2022-12-07T11:26:33;48.87;;;22.10;;
8704;SDS011;4389;41.932;25.904;2022-12-07T11:29:17;38.43;;;23.03;;
8704;SDS011;4389;41.932;25.904;2022-12-07T11:31:58;34.07;;;22.07;;
8704;SDS011;4389;41.932;25.904;2022-12-07T11:34:37;33.60;;;21.73;;
8704;SDS011;4389;41.932;25.904;2022-12-07T11:37:13;39.43;;;22.07;;
8704;SDS011;4389;41.932;25.904;2022-12-07T11:39:46;38.87;;;24.70;;
8704;SDS011;4389;41.932;25.904;2022-12-07T11:42:19;42.73;;;21.87;;
8704;SDS011;4389;41.932;25.904;2022-12-07T11:44:50;38.40;;;21.90;;
8704;SDS011;4389;41.932;25.904;2022-12-07T11:47:21;35.30;;;21.80;;
8704;SDS011;4389;41.932;25.904;2022-12-07T11:49:56;34.63;;;23.60;;
8704;SDS011;4389;41.932;25.904;2022-12-07T11:52:30;41.37;;;22.77;;
8704;SDS011;4389;41.932;25.904;2022-12-07T11:55:05;42.00;;;22.80;;
8704;SDS011;4389;41.932;25.904;2022-12-07T11:57:45;38.23;;;24.60;;
8704;SDS011;4389;41.932;25.904;2022-12-07T12:00:18;43.93;;;25.57;;
8704;SDS011;4389;41.932;25.904;2022-12-07T12:02:48;41.80;;;25.63;;
8704;SDS011;4389;41.932;25.904;2022-12-07T12:05:20;39.23;;;24.63;;
8704;SDS011;4389;41.932;25.904;2022-12-07T12:07:49;33.20;;;24.63;;
8704;SDS011;4389;41.932;25.904;2022-12-07T12:10:22;54.43;;;28.43;;
8704;SDS011;4389;41.932;25.904;2022-12-07T12:16:19;46.13;;;26.37;;
8704;SDS011;4389;41.932;25.904;2022-12-07T12:19:11;42.70;;;29.20;;
8704;SDS011;4389;41.932;25.904;2022-12-07T12:21:49;36.63;;;25.97;;
8704;SDS011;4389;41.932;25.904;2022-12-07T12:24:22;42.63;;;25.73;;
8704;SDS011;4389;41.932;25.904;2022-12-07T12:26:52;41.33;;;26.37;;
8704;SDS011;4389;41.932;25.904;2022-12-07T12:29:26;45.73;;;28.53;;
8704;SDS011;4389;41.932;25.904;2022-12-07T12:32:08;48.87;;;30.07;;
8704;SDS011;4389;41.932;25.904;2022-12-07T12:34:41;42.70;;;27.90;;
8704;SDS011;4389;41.932;25.904;2022-12-07T12:55:16;42.60;;;27.57;;
8704;SDS011;4389;41.932;25.904;2022-12-07T12:57:46;42.87;;;26.80;;
8704;SDS011;4389;41.932;25.904;2022-12-07T13:00:36;40.83;;;26.00;;
8704;SDS011;4389;41.932;25.904;2022-12-07T13:03:02;47.50;;;25.80;;
8704;SDS011;4389;41.932;25.904;2022-12-07T13:05:30;53.87;;;27.57;;
8704;SDS011;4389;41.932;25.904;2022-12-07T13:07:58;49.90;;;28.00;;
8704;SDS011;4389;41.932;25.904;2022-12-07T13:13:34;45.90;;;30.00;;
8704;SDS011;4389;41.932;25.904;2022-12-07T13:25:29;68.83;;;37.03;;
8704;SDS011;4389;41.932;25.904;2022-12-07T13:28:01;65.83;;;37.20;;
8704;SDS011;4389;41.932;25.904;2022-12-07T13:30:38;74.63;;;36.60;;
8704;SDS011;4389;41.932;25.904;2022-12-07T13:33:11;64.80;;;34.37;;
8704;SDS011;4389;41.932;25.904;2022-12-07T13:35:39;49.77;;;31.60;;
8704;SDS011;4389;41.932;25.904;2022-12-07T13:38:15;46.93;;;28.53;;
8704;SDS011;4389;41.932;25.904;2022-12-07T13:40:59;60.37;;;29.53;;
8704;SDS011;4389;41.932;25.904;2022-12-07T13:43:27;34.77;;;24.53;;
8704;SDS011;4389;41.932;25.904;2022-12-07T13:45:55;39.30;;;25.73;;
8704;SDS011;4389;41.932;25.904;2022-12-07T13:48:24;36.50;;;23.90;;
8704;SDS011;4389;41.932;25.904;2022-12-07T13:50:58;31.47;;;21.77;;
8704;SDS011;4389;41.932;25.904;2022-12-07T13:53:29;31.27;;;22.57;;
8704;SDS011;4389;41.932;25.904;2022-12-07T13:55:57;35.37;;;25.47;;
8704;SDS011;4389;41.932;25.904;2022-12-07T13:58:25;39.87;;;22.37;;
8704;SDS011;4389;41.932;25.904;2022-12-07T14:00:53;26.13;;;18.63;;
8704;SDS011;4389;41.932;25.904;2022-12-07T14:03:25;27.13;;;20.53;;
8704;SDS011;4389;41.932;25.904;2022-12-07T14:11:41;20.10;;;14.03;;
8704;SDS011;4389;41.932;25.904;2022-12-07T14:14:10;31.47;;;16.63;;
8704;SDS011;4389;41.932;25.904;2022-12-07T14:16:43;48.37;;;18.80;;
8704;SDS011;4389;41.932;25.904;2022-12-07T14:22:08;29.30;;;18.00;;
8704;SDS011;4389;41.932;25.904;2022-12-07T14:24:45;24.97;;;17.10;;
8704;SDS011;4389;41.932;25.904;2022-12-07T14:27:19;24.97;;;16.87;;
8704;SDS011;4389;41.932;25.904;2022-12-07T14:29:47;22.43;;;16.37;;
8704;SDS011;4389;41.932;25.904;2022-12-07T14:32:18;31.07;;;19.50;;
8704;SDS011;4389;41.932;25.904;2022-12-07T14:34:54;36.27;;;19.13;;
8704;SDS011;4389;41.932;25.904;2022-12-07T14:37:21;29.77;;;17.80;;
8704;SDS011;4389;41.932;25.904;2022-12-07T14:39:50;24.20;;;17.70;;
8704;SDS011;4389;41.932;25.904;2022-12-07T14:42:16;44.07;;;19.13;;
8704;SDS011;4389;41.932;25.904;2022-12-07T14:44:43;34.83;;;18.77;;
8704;SDS011;4389;41.932;25.904;2022-12-07T14:47:10;27.20;;;19.37;;
8704;SDS011;4389;41.932;25.904;2022-12-07T14:49:37;26.77;;;18.53;;
8704;SDS011;4389;41.932;25.904;2022-12-07T14:52:05;40.57;;;21.50;;
8704;SDS011;4389;41.932;25.904;2022-12-07T14:54:36;46.03;;;22.87;;
8704;SDS011;4389;41.932;25.904;2022-12-07T14:57:04;45.90;;;22.93;;
8704;SDS011;4389;41.932;25.904;2022-12-07T14:59:31;46.67;;;22.70;;
8704;SDS011;4389;41.932;25.904;2022-12-07T15:01:58;34.43;;;19.30;;
8704;SDS011;4389;41.932;25.904;2022-12-07T15:04:24;49.47;;;21.97;;
8704;SDS011;4389;41.932;25.904;2022-12-07T15:06:55;27.33;;;16.77;;
8704;SDS011;4389;41.932;25.904;2022-12-07T15:09:23;34.83;;;18.70;;
8704;SDS011;4389;41.932;25.904;2022-12-07T15:11:50;39.27;;;21.03;;
8704;SDS011;4389;41.932;25.904;2022-12-07T15:14:18;40.60;;;21.63;;
8704;SDS011;4389;41.932;25.904;2022-12-07T15:16:45;33.03;;;20.67;;
8704;SDS011;4389;41.932;25.904;2022-12-07T15:19:13;40.20;;;22.03;;
8704;SDS011;4389;41.932;25.904;2022-12-07T15:21:41;35.60;;;22.87;;
8704;SDS011;4389;41.932;25.904;2022-12-07T15:24:09;33.87;;;23.43;;
8704;SDS011;4389;41.932;25.904;2022-12-07T15:26:37;38.97;;;23.07;;
8704;SDS011;4389;41.932;25.904;2022-12-07T15:29:04;33.37;;;22.60;;
8704;SDS011;4389;41.932;25.904;2022-12-07T15:31:33;50.67;;;24.47;;
8704;SDS011;4389;41.932;25.904;2022-12-07T15:34:00;37.60;;;23.63;;
8704;SDS011;4389;41.932;25.904;2022-12-07T15:36:28;39.97;;;24.17;;